Time;durP1;ratioP1;P1;durP2;ratioP2;P2;SDS_P1;SDS_P2;PMS_P1;PMS_P2;Temp;Humidity;BMP_temperature;BMP_pressure;BME280_temperature;BME280_humidity;BME280_pressure;Samples;Min_cycle;Max_cycle;Signal;HPM_P1;HPM_P2
2023/07/23 00:00:54;;;;;;;10.43;3.75;;;;;;;17.80;47.83;100200.94;5077557;28;20213;-70
2023/07/23 00:03:22;;;;;;;3.40;3.10;;;;;;;17.75;47.93;100197.66;5075613;28;20236;-71
2023/07/23 00:05:51;;;;;;;6.47;3.45;;;;;;;17.75;47.98;100198.53;5077224;28;20239;-71
2023/07/23 00:08:19;;;;;;;3.80;3.40;;;;;;;17.73;48.18;100195.09;5077416;28;20577;-70
2023/07/23 00:10:47;;;;;;;7.43;3.40;;;;;;;17.70;48.28;100203.00;5077692;28;20705;-72
2023/07/23 00:13:17;;;;;;;4.78;3.38;;;;;;;17.70;48.02;100197.81;5077314;28;20656;-70
2023/07/23 00:15:45;;;;;;;7.40;3.50;;;;;;;17.68;48.27;100197.03;5077276;28;20567;-71
2023/07/23 00:18:13;;;;;;;6.15;3.45;;;;;;;17.65;48.17;100191.94;5077226;28;20217;-70
2023/07/23 00:20:41;;;;;;;4.35;3.45;;;;;;;17.62;48.50;100198.09;5077483;28;20563;-70
2023/07/23 00:23:09;;;;;;;3.60;2.95;;;;;;;17.58;48.72;100193.91;5076936;28;20211;-70
2023/07/23 00:25:37;;;;;;;5.53;3.55;;;;;;;17.58;48.62;100185.25;5072207;28;20209;-71
2023/07/23 00:28:06;;;;;;;4.25;3.25;;;;;;;17.56;48.90;100189.66;5073369;28;20193;-70
2023/07/23 00:30:35;;;;;;;5.00;3.80;;;;;;;17.53;49.03;100176.78;5077279;28;20296;-71
2023/07/23 00:33:04;;;;;;;5.82;3.53;;;;;;;17.54;49.10;100178.47;5075677;28;20267;-72
2023/07/23 00:35:32;;;;;;;5.32;3.83;;;;;;;17.52;48.99;100175.06;5077444;28;20585;-71
2023/07/23 00:38:00;;;;;;;3.67;3.28;;;;;;;17.51;49.17;100179.41;5077295;28;20235;-70
2023/07/23 00:40:29;;;;;;;6.82;3.83;;;;;;;17.49;49.23;100180.38;5077056;28;20505;-71
2023/07/23 00:42:57;;;;;;;6.65;3.80;;;;;;;17.43;49.57;100175.41;5077303;28;20209;-70
2023/07/23 00:45:25;;;;;;;5.78;3.92;;;;;;;17.41;49.75;100182.44;5077541;28;20220;-70
2023/07/23 00:47:55;;;;;;;4.28;3.88;;;;;;;17.38;49.52;100170.41;5077003;28;20201;-70
2023/07/23 00:50:23;;;;;;;5.63;3.28;;;;;;;17.34;49.67;100174.88;5076907;28;20201;-70
2023/07/23 00:52:52;;;;;;;6.13;3.30;;;;;;;17.26;49.94;100176.88;5077008;28;20216;-71
2023/07/23 00:55:20;;;;;;;6.07;3.60;;;;;;;17.23;49.98;100176.16;5077321;28;20624;-70
2023/07/23 00:57:48;;;;;;;9.45;3.90;;;;;;;17.20;50.38;100173.69;5077087;28;20201;-70
2023/07/23 01:00:16;;;;;;;4.32;3.63;;;;;;;17.14;50.10;100170.38;5075378;28;20694;-71
2023/07/23 01:02:44;;;;;;;3.50;3.15;;;;;;;17.11;50.37;100169.63;5066100;28;20202;-70
2023/07/23 01:05:14;;;;;;;4.55;3.80;;;;;;;17.08;50.53;100165.38;5068030;28;20574;-70
2023/07/23 01:07:44;;;;;;;5.95;3.35;;;;;;;17.06;50.47;100172.41;5074081;28;20255;-73
2023/07/23 01:10:13;;;;;;;4.78;4.03;;;;;;;17.03;50.45;100167.31;5074164;28;20205;-70
2023/07/23 01:12:42;;;;;;;5.75;3.70;;;;;;;16.99;50.55;100170.94;5073474;28;20228;-70
2023/07/23 01:15:11;;;;;;;4.30;3.28;;;;;;;17.00;50.59;100172.63;5073298;28;20201;-69
2023/07/23 01:17:40;;;;;;;3.92;3.22;;;;;;;17.01;50.67;100170.88;5073211;28;20201;-71
2023/07/23 01:20:09;;;;;;;5.43;4.18;;;;;;;17.00;50.71;100161.38;5073581;28;20684;-71
2023/07/23 01:22:38;;;;;;;5.95;3.97;;;;;;;16.98;50.82;100153.63;5073125;28;20209;-70
2023/07/23 01:25:06;;;;;;;6.30;3.58;;;;;;;16.98;50.85;100155.38;5072453;28;20205;-71
2023/07/23 01:27:35;;;;;;;4.60;3.33;;;;;;;16.97;50.95;100151.91;5065617;28;20205;-70
2023/07/23 01:30:03;;;;;;;5.15;3.13;;;;;;;16.95;51.17;100152.88;5073451;28;20546;-70
2023/07/23 01:32:32;;;;;;;7.10;3.90;;;;;;;16.92;51.22;100153.84;5070378;28;20256;-71
2023/07/23 01:35:04;;;;;;;5.13;3.83;;;;;;;16.89;51.31;100153.94;5072771;28;20612;-72
2023/07/23 01:37:32;;;;;;;4.95;3.58;;;;;;;16.86;51.15;100149.72;5071961;28;20217;-73
2023/07/23 01:40:01;;;;;;;4.97;4.00;;;;;;;16.81;51.39;100145.56;5060018;28;20692;-70
2023/07/23 01:42:32;;;;;;;5.68;3.35;;;;;;;16.76;51.23;100153.53;5072899;28;20259;-69
2023/07/23 01:45:02;;;;;;;6.90;3.55;;;;;;;16.70;51.40;100152.88;5072903;28;20197;-71
2023/07/23 01:47:30;;;;;;;4.32;3.53;;;;;;;16.64;51.40;100156.53;5073207;28;20685;-71
2023/07/23 01:49:58;;;;;;;4.57;3.55;;;;;;;16.58;51.61;100151.56;5072669;28;20209;-71
2023/07/23 01:52:27;;;;;;;6.45;3.88;;;;;;;16.51;51.50;100156.09;5072864;28;20308;-69
2023/07/23 01:54:55;;;;;;;4.95;3.85;;;;;;;16.50;51.59;100157.03;5072519;28;20209;-70
2023/07/23 01:57:24;;;;;;;8.88;3.70;;;;;;;16.46;51.86;100160.63;5072765;28;20546;-70
2023/07/23 01:59:52;;;;;;;3.92;3.42;;;;;;;16.48;51.83;100160.56;5071798;28;20634;-70
2023/07/23 02:02:20;;;;;;;5.07;3.63;;;;;;;16.49;51.63;100165.69;5070012;28;20197;-71
2023/07/23 02:04:48;;;;;;;4.60;3.72;;;;;;;16.51;51.64;100158.72;5072418;28;20220;-71
2023/07/23 02:07:17;;;;;;;5.80;3.83;;;;;;;16.54;51.41;100156.00;5072471;28;20319;-73
2023/07/23 02:09:48;;;;;;;5.53;3.80;;;;;;;16.55;51.33;100165.50;5072617;28;20678;-69
2023/07/23 02:12:16;;;;;;;4.90;3.47;;;;;;;16.55;51.35;100162.91;5071799;28;20201;-71
2023/07/23 02:14:46;;;;;;;4.28;3.55;;;;;;;16.55;51.19;100170.72;5072186;28;20201;-71
2023/07/23 02:17:14;;;;;;;5.43;3.38;;;;;;;16.53;51.26;100159.53;5072239;28;20648;-70
2023/07/23 02:19:42;;;;;;;4.43;3.60;;;;;;;16.51;51.35;100161.31;5072142;28;20221;-69
2023/07/23 02:22:10;;;;;;;5.15;3.55;;;;;;;16.51;51.46;100163.91;5072672;28;20215;-70
2023/07/23 02:24:38;;;;;;;6.65;4.30;;;;;;;16.53;51.38;100161.25;5072136;28;20205;-70
2023/07/23 02:27:06;;;;;;;7.22;3.42;;;;;;;16.52;51.25;100168.19;5062768;28;20209;-69
2023/07/23 02:29:34;;;;;;;3.95;3.10;;;;;;;16.54;51.60;100165.56;5065644;28;20240;-70
2023/07/23 02:32:04;;;;;;;5.38;3.40;;;;;;;16.54;51.45;100168.16;5071869;28;20284;-71
2023/07/23 02:34:32;;;;;;;4.00;3.60;;;;;;;16.53;51.30;100167.31;5072061;28;20212;-71
2023/07/23 02:37:00;;;;;;;4.55;3.70;;;;;;;16.53;51.42;100171.66;5071674;28;20205;-69
2023/07/23 02:39:28;;;;;;;4.55;3.60;;;;;;;16.54;51.52;100162.97;5060763;28;20232;-71
2023/07/23 02:41:56;;;;;;;6.15;3.58;;;;;;;16.53;51.25;100163.84;5069827;28;20202;-71
2023/07/23 02:44:23;;;;;;;3.38;3.05;;;;;;;16.54;51.45;100158.59;5072057;28;20679;-70
2023/07/23 02:46:51;;;;;;;3.80;3.42;;;;;;;16.58;51.46;100164.56;5071508;28;21273;-71
2023/07/23 02:49:21;;;;;;;4.90;3.55;;;;;;;16.60;51.69;100160.13;5071687;28;20217;-72
2023/07/23 02:51:49;;;;;;;4.80;3.80;;;;;;;16.59;51.33;100158.44;5071445;28;20213;-71
2023/07/23 02:54:17;;;;;;;4.13;3.55;;;;;;;16.58;51.21;100157.59;5071596;28;20549;-71
2023/07/23 02:56:45;;;;;;;5.90;3.40;;;;;;;16.57;50.95;100160.22;5071472;28;20209;-70
2023/07/23 02:59:13;;;;;;;4.40;3.60;;;;;;;16.56;51.04;100151.59;5071079;28;20213;-71
2023/07/23 03:01:41;;;;;;;6.75;3.60;;;;;;;16.55;50.98;100159.47;5071738;28;20201;-69
2023/07/23 03:04:08;;;;;;;6.53;3.50;;;;;;;16.54;51.09;100156.00;5071435;28;20202;-71
2023/07/23 03:06:38;;;;;;;3.70;3.30;;;;;;;16.54;50.96;100158.59;5071617;28;20209;-70
2023/07/23 03:09:06;;;;;;;5.78;3.63;;;;;;;16.54;51.18;100168.16;5071304;28;20221;-71
2023/07/23 03:11:35;;;;;;;3.97;3.25;;;;;;;16.53;51.22;100153.44;5071421;28;20213;-71
2023/07/23 03:14:02;;;;;;;3.88;3.40;;;;;;;16.51;51.35;100160.47;5071462;28;20211;-70
2023/07/23 03:16:30;;;;;;;6.55;3.53;;;;;;;16.50;51.15;100159.63;5071480;28;20700;-71
2023/07/23 03:18:58;;;;;;;4.93;3.50;;;;;;;16.49;51.21;100159.66;5071354;28;20201;-69
2023/07/23 03:21:26;;;;;;;5.47;3.58;;;;;;;16.48;51.05;100161.41;5071340;28;20599;-71
2023/07/23 03:23:56;;;;;;;5.93;3.60;;;;;;;16.48;51.28;100157.97;5070381;28;20228;-70
2023/07/23 03:26:28;;;;;;;4.40;3.50;;;;;;;16.46;51.26;100163.22;5061983;28;20237;-74
2023/07/23 03:28:59;;;;;;;4.40;3.17;;;;;;;16.46;51.15;100162.34;5068053;28;20208;-73
2023/07/23 03:31:28;;;;;;;5.85;3.72;;;;;;;16.40;51.03;100148.66;5066538;28;20256;-72
2023/07/23 03:33:58;;;;;;;3.45;3.10;;;;;;;16.43;51.00;100148.56;5054131;28;20303;-71
2023/07/23 03:36:30;;;;;;;4.80;3.55;;;;;;;16.46;50.87;100149.34;5071647;28;20213;-70
2023/07/23 03:38:59;;;;;;;6.35;3.47;;;;;;;16.47;51.08;100148.47;5065210;28;20609;-72
2023/07/23 03:41:28;;;;;;;3.55;3.25;;;;;;;16.50;50.75;100146.63;5065715;28;20221;-71
2023/07/23 03:43:56;;;;;;;4.47;3.33;;;;;;;16.55;50.69;100143.84;5071647;28;20224;-70
2023/07/23 03:46:29;;;;;;;4.30;3.58;;;;;;;16.59;50.69;100150.63;5071524;28;20209;-71
2023/07/23 03:48:57;;;;;;;4.35;3.40;;;;;;;16.62;50.33;100151.38;5057433;28;20237;-71
2023/07/23 03:51:25;;;;;;;5.18;4.25;;;;;;;16.61;50.37;100152.28;5071130;28;20599;-71
2023/07/23 03:53:54;;;;;;;4.72;3.33;;;;;;;16.62;50.51;100155.75;5070640;28;20220;-70
2023/07/23 03:56:23;;;;;;;4.05;3.53;;;;;;;16.63;50.33;100154.84;5070889;28;20209;-72
2023/07/23 03:58:53;;;;;;;4.22;3.83;;;;;;;16.65;50.33;100160.84;5069856;28;20213;-71
2023/07/23 04:01:21;;;;;;;4.45;3.17;;;;;;;16.66;50.41;100158.19;5069553;28;20787;-70
2023/07/23 04:03:49;;;;;;;5.65;3.45;;;;;;;16.69;50.13;100154.63;5070214;28;20712;-72
2023/07/23 04:06:17;;;;;;;4.60;3.55;;;;;;;16.73;50.06;100157.97;5070853;28;20216;-70
2023/07/23 04:08:45;;;;;;;4.40;3.30;;;;;;;16.75;49.85;100150.97;5070563;28;20297;-70
2023/07/23 04:11:13;;;;;;;5.95;3.40;;;;;;;16.80;49.92;100157.72;5070791;28;20201;-71
2023/07/23 04:13:42;;;;;;;5.45;3.75;;;;;;;16.86;49.71;100146.25;5070629;28;20215;-70
2023/07/23 04:16:11;;;;;;;4.88;3.53;;;;;;;16.95;49.53;100150.28;5056745;28;20205;-72
2023/07/23 04:18:47;;;;;;;4.45;3.92;;;;;;;17.05;49.03;100149.06;5070550;28;20296;-70
2023/07/23 04:21:15;;;;;;;4.05;3.53;;;;;;;17.14;48.38;100153.91;5070277;28;20232;-71
2023/07/23 04:23:46;;;;;;;5.07;3.50;;;;;;;17.25;48.45;100156.13;5070629;28;20201;-71
2023/07/23 04:26:14;;;;;;;4.60;3.42;;;;;;;17.37;48.23;100146.06;5062503;28;20672;-72
2023/07/23 04:28:46;;;;;;;7.75;4.00;;;;;;;17.48;47.95;100153.47;5064228;28;20209;-71
2023/07/23 04:31:14;;;;;;;5.20;3.25;;;;;;;17.58;47.69;100148.78;5065071;28;20601;-71
2023/07/23 04:33:42;;;;;;;4.60;3.30;;;;;;;17.67;47.31;100156.22;5070664;28;20197;-70
2023/07/23 04:36:12;;;;;;;7.65;3.70;;;;;;;17.74;47.26;100165.50;5073156;28;20209;-70
2023/07/23 04:38:40;;;;;;;4.60;3.65;;;;;;;17.80;46.99;100160.09;5070430;28;20593;-70
2023/07/23 04:41:09;;;;;;;5.35;3.55;;;;;;;17.86;46.94;100157.25;5065891;28;20652;-72
2023/07/23 04:43:38;;;;;;;6.47;3.35;;;;;;;17.99;46.87;100164.56;5074503;28;20757;-70
2023/07/23 04:46:07;;;;;;;7.70;3.60;;;;;;;18.14;46.59;100163.09;5074310;28;20216;-71
2023/07/23 04:48:36;;;;;;;3.38;3.08;;;;;;;18.21;46.34;100162.78;5073925;28;20201;-70
2023/07/23 04:54:22;;;;;;;5.40;3.30;;;;;;;18.45;45.44;100158.31;5067079;28;20297;-71
2023/07/23 04:56:50;;;;;;;6.07;3.45;;;;;;;18.56;45.25;100156.09;5068634;28;20661;-71
2023/07/23 04:59:18;;;;;;;3.33;2.92;;;;;;;18.72;44.93;100156.31;5074012;28;20205;-71
2023/07/23 05:01:47;;;;;;;3.63;2.97;;;;;;;18.88;44.43;100150.41;5073851;28;20251;-72
2023/07/23 05:04:15;;;;;;;4.55;3.45;;;;;;;19.05;43.89;100153.13;5073682;28;20232;-71
2023/07/23 05:06:43;;;;;;;4.90;3.22;;;;;;;19.53;43.45;100141.34;5073890;28;20197;-71
2023/07/23 05:09:11;;;;;;;4.05;3.20;;;;;;;20.44;41.54;100141.28;5073712;28;20667;-71
2023/07/23 05:11:39;;;;;;;4.07;3.15;;;;;;;21.35;39.27;100139.16;5073666;28;20205;-70
2023/07/23 05:14:07;;;;;;;4.10;3.28;;;;;;;22.07;37.74;100135.97;5073692;28;20739;-71
2023/07/23 05:16:35;;;;;;;3.58;2.90;;;;;;;23.00;35.66;100137.47;5073449;28;20209;-70
2023/07/23 05:19:05;;;;;;;4.55;2.90;;;;;;;23.51;34.53;100129.06;5073619;28;20729;-71
2023/07/23 05:21:34;;;;;;;3.17;2.55;;;;;;;24.01;33.59;100133.69;5073196;28;20217;-70
2023/07/23 05:24:02;;;;;;;4.13;2.70;;;;;;;24.34;33.17;100124.50;5073243;28;20263;-70
2023/07/23 05:26:30;;;;;;;3.00;2.70;;;;;;;24.21;33.13;100135.00;5067948;28;20197;-70
2023/07/23 05:28:58;;;;;;;3.15;2.50;;;;;;;23.94;33.55;100136.84;5072833;28;20252;-69
2023/07/23 05:31:26;;;;;;;5.15;2.83;;;;;;;23.89;33.89;100131.84;5074148;28;20700;-70
2023/07/23 05:33:55;;;;;;;3.70;2.50;;;;;;;24.39;33.63;100134.72;5073268;28;20216;-70
2023/07/23 05:36:24;;;;;;;4.22;2.97;;;;;;;25.29;31.79;100131.94;5073353;28;20210;-70
2023/07/23 05:38:52;;;;;;;3.28;2.97;;;;;;;25.98;30.47;100126.94;5067392;28;20202;-71
2023/07/23 05:41:20;;;;;;;3.30;2.83;;;;;;;26.63;29.17;100122.13;5066830;28;20217;-69
2023/07/23 05:43:48;;;;;;;3.72;2.50;;;;;;;26.51;29.04;100126.53;5073269;28;20604;-70
2023/07/23 05:46:16;;;;;;;3.08;2.75;;;;;;;25.60;30.18;100126.28;5072993;28;20212;-71
2023/07/23 05:48:44;;;;;;;3.55;2.90;;;;;;;24.55;31.64;100130.94;5072945;28;20251;-70
2023/07/23 05:51:12;;;;;;;4.65;2.97;;;;;;;23.61;33.34;100133.63;5072832;28;20212;-71
2023/07/23 05:53:42;;;;;;;3.75;2.70;;;;;;;22.99;35.00;100130.53;5072929;28;20564;-71
2023/07/23 05:56:10;;;;;;;3.70;3.05;;;;;;;22.78;35.79;100129.19;5068209;28;20664;-71
2023/07/23 05:58:37;;;;;;;3.42;2.88;;;;;;;22.56;36.03;100129.66;5068093;28;20236;-71
2023/07/23 06:01:19;;;;;;;3.58;2.88;;;;;;;22.66;36.27;100134.25;5072593;28;20228;-71
2023/07/23 06:03:47;;;;;;;5.45;3.00;;;;;;;22.74;35.79;100122.44;5072442;28;20560;-71
2023/07/23 06:06:21;;;;;;;4.03;2.67;;;;;;;22.51;36.23;100129.09;5072624;28;20208;-71
2023/07/23 06:08:51;;;;;;;4.15;2.42;;;;;;;22.34;36.99;100128.28;5072408;28;20212;-70
2023/07/23 06:11:19;;;;;;;3.30;3.00;;;;;;;22.63;37.21;100129.19;5072523;28;20208;-72
2023/07/23 06:13:47;;;;;;;4.32;2.92;;;;;;;22.85;36.14;100127.88;5072723;28;20245;-70
2023/07/23 06:16:15;;;;;;;4.75;2.90;;;;;;;23.09;35.56;100126.41;5072640;28;20260;-70
2023/07/23 06:18:43;;;;;;;4.35;2.70;;;;;;;24.22;34.75;100117.41;5059415;28;20217;-71
2023/07/23 06:21:11;;;;;;;6.75;3.25;;;;;;;25.26;31.90;100110.25;5071676;28;20710;-68
2023/07/23 06:23:39;;;;;;;4.15;2.80;;;;;;;25.95;30.56;100113.13;5072358;28;20569;-68
2023/07/23 06:26:08;;;;;;;5.28;3.30;;;;;;;27.30;29.23;100100.94;5069579;28;20618;-70
2023/07/23 06:28:39;;;;;;;5.32;3.20;;;;;;;29.20;26.11;100098.22;5059799;28;20217;-71
2023/07/23 06:31:07;;;;;;;3.00;2.70;;;;;;;31.31;23.39;100087.53;5070971;28;20244;-71
2023/07/23 06:33:35;;;;;;;3.00;2.42;;;;;;;33.05;20.90;100092.97;5072612;28;20555;-67
2023/07/23 06:36:03;;;;;;;4.10;2.70;;;;;;;34.18;20.04;100090.66;5072405;28;20603;-69
2023/07/23 06:38:31;;;;;;;3.75;2.60;;;;;;;34.97;19.24;100086.22;5069747;28;20679;-67
2023/07/23 06:40:59;;;;;;;3.90;2.88;;;;;;;34.63;18.71;100086.56;5070418;28;20208;-64
2023/07/23 06:43:29;;;;;;;4.70;2.85;;;;;;;33.95;19.35;100087.78;5070943;28;20235;-72
2023/07/23 06:45:57;;;;;;;4.15;2.50;;;;;;;33.96;19.61;100084.97;5072775;28;20270;-73
2023/07/23 06:48:28;;;;;;;3.80;2.45;;;;;;;34.13;19.26;100081.31;5072989;28;20205;-72
2023/07/23 06:50:57;;;;;;;4.30;2.60;;;;;;;32.79;20.63;100082.34;5073391;28;20209;-71
2023/07/23 06:53:26;;;;;;;3.38;2.50;;;;;;;31.47;21.41;100085.00;5072783;28;20212;-70
2023/07/23 06:55:59;;;;;;;2.60;2.28;;;;;;;30.77;22.80;100085.53;5071667;28;20227;-62
2023/07/23 06:58:35;;;;;;;2.83;2.50;;;;;;;29.92;22.86;100080.25;5070763;28;20280;-63
2023/07/23 07:01:03;;;;;;;3.25;2.53;;;;;;;29.36;24.18;100079.09;5068087;28;20560;-61
2023/07/23 07:03:32;;;;;;;3.17;2.55;;;;;;;29.63;24.23;100080.25;5071589;28;20587;-63
2023/07/23 07:06:01;;;;;;;2.78;2.45;;;;;;;30.19;23.51;100080.34;5071229;28;20232;-63
2023/07/23 07:08:29;;;;;;;3.20;2.45;;;;;;;30.11;24.07;100085.53;5071235;28;20201;-66
2023/07/23 07:11:02;;;;;;;3.58;2.75;;;;;;;30.38;24.09;100083.94;5071435;28;20209;-67
2023/07/23 07:13:32;;;;;;;4.28;2.58;;;;;;;31.18;23.09;100077.19;5071785;28;20339;-66
2023/07/23 07:16:03;;;;;;;3.13;2.60;;;;;;;31.73;22.17;100072.59;5054085;28;20236;-68
2023/07/23 07:18:31;;;;;;;3.00;2.70;;;;;;;32.59;21.88;100079.94;5071612;28;20209;-70
2023/07/23 07:21:02;;;;;;;3.10;2.70;;;;;;;34.21;19.70;100068.88;5071522;28;20292;-70
2023/07/23 07:23:31;;;;;;;3.60;2.60;;;;;;;35.34;18.26;100072.16;5071047;28;20263;-68
2023/07/23 07:26:00;;;;;;;2.60;2.40;;;;;;;36.01;17.73;100067.00;5062209;28;20716;-69
2023/07/23 07:28:30;;;;;;;2.60;2.40;;;;;;;36.20;17.04;100057.59;5070419;28;20202;-70
2023/07/23 07:31:00;;;;;;;4.55;2.42;;;;;;;34.65;17.93;100073.81;5070946;28;20215;-68
2023/07/23 07:33:29;;;;;;;2.50;2.30;;;;;;;32.52;19.92;100067.38;5056858;28;20201;-71
2023/07/23 07:35:59;;;;;;;2.58;2.38;;;;;;;30.63;21.49;100064.69;5071388;28;20737;-70
2023/07/23 07:38:35;;;;;;;2.45;2.20;;;;;;;29.37;23.36;100063.00;5066133;28;20263;-68
2023/07/23 07:41:03;;;;;;;2.78;2.20;;;;;;;29.15;24.03;100063.25;5058311;28;20216;-69
2023/07/23 07:43:31;;;;;;;2.60;2.40;;;;;;;30.52;23.40;100048.91;5060536;28;20209;-69
2023/07/23 07:46:02;;;;;;;2.38;2.20;;;;;;;32.80;20.57;100047.47;5071339;28;20201;-68
2023/07/23 07:48:31;;;;;;;2.78;1.88;;;;;;;34.38;18.73;100052.63;5071292;28;20204;-68
2023/07/23 07:51:00;;;;;;;2.20;2.00;;;;;;;35.31;17.43;100038.53;5071181;28;20605;-70
2023/07/23 07:53:28;;;;;;;2.45;2.25;;;;;;;35.61;16.75;100043.16;5070920;28;20208;-69
2023/07/23 07:55:57;;;;;;;1.90;1.80;;;;;;;34.99;16.71;100044.88;5070887;28;20285;-68
2023/07/23 07:58:25;;;;;;;2.65;2.22;;;;;;;33.73;17.69;100041.16;5071144;28;20224;-70
2023/07/23 08:00:55;;;;;;;2.22;1.95;;;;;;;32.22;19.32;100046.34;5071105;28;20208;-69
2023/07/23 08:03:27;;;;;;;3.25;2.00;;;;;;;31.07;21.00;100042.78;5070733;28;20236;-69
2023/07/23 08:05:57;;;;;;;3.70;1.95;;;;;;;30.38;21.38;100030.78;5071212;28;20227;-78
2023/07/23 08:08:31;;;;;;;2.58;1.98;;;;;;;29.91;22.94;100038.72;5071091;28;20280;-72
2023/07/23 08:11:01;;;;;;;3.15;1.88;;;;;;;30.55;22.06;100032.69;5072242;28;20215;-70
2023/07/23 08:13:31;;;;;;;3.10;2.00;;;;;;;30.56;21.44;100024.56;5074886;28;20201;-70
2023/07/23 08:16:00;;;;;;;5.25;2.03;;;;;;;30.03;22.20;100030.44;5075132;28;20205;-69
2023/07/23 08:18:30;;;;;;;2.42;2.13;;;;;;;29.37;22.82;100015.22;5074808;28;20205;-70
2023/07/23 08:20:59;;;;;;;5.38;2.28;;;;;;;28.76;23.78;100019.88;5073329;28;20224;-70
2023/07/23 08:23:29;;;;;;;2.28;2.08;;;;;;;28.38;24.38;100018.72;5060360;28;20228;-68
2023/07/23 08:25:59;;;;;;;2.55;2.05;;;;;;;28.20;24.98;100026.41;5067115;28;20205;-70
2023/07/23 08:28:30;;;;;;;2.42;2.22;;;;;;;28.09;25.49;100011.44;5073934;28;20225;-70
2023/07/23 08:31:00;;;;;;;3.13;2.10;;;;;;;27.94;24.89;100015.38;5073550;28;20205;-69
2023/07/23 08:33:31;;;;;;;3.78;2.15;;;;;;;27.74;25.58;100002.97;5074314;28;20617;-69
2023/07/23 08:36:02;;;;;;;2.30;2.10;;;;;;;27.50;25.70;100000.56;5074627;28;20632;-69
2023/07/23 08:38:30;;;;;;;2.85;1.95;;;;;;;27.23;26.44;100001.88;5067650;28;20309;-71
2023/07/23 08:41:02;;;;;;;3.08;2.15;;;;;;;27.24;26.75;100008.81;5056890;28;20205;-69
2023/07/23 08:44:03;;;;;;;1.92;1.73;;;;;;;27.28;26.27;99999.66;5063509;28;20233;-70
2023/07/23 08:46:31;;;;;;;2.30;2.08;;;;;;;27.24;26.25;99997.41;5066385;28;20201;-69
2023/07/23 08:49:07;;;;;;;3.17;2.03;;;;;;;27.27;26.40;100007.75;5074367;28;20201;-71
2023/07/23 08:51:44;;;;;;;3.25;2.20;;;;;;;27.11;27.02;99997.56;5073953;28;20213;-68
2023/07/23 08:54:14;;;;;;;2.25;2.00;;;;;;;27.21;27.13;100003.78;5074402;28;20207;-72
2023/07/23 08:56:43;;;;;;;3.83;2.35;;;;;;;27.28;26.79;100004.97;5073872;28;20197;-69
2023/07/23 08:59:15;;;;;;;4.18;1.95;;;;;;;27.20;26.61;100007.41;5074026;28;20205;-70
2023/07/23 09:01:44;;;;;;;2.50;2.10;;;;;;;27.22;27.17;100008.13;5073709;28;20254;-70
2023/07/23 09:04:14;;;;;;;2.38;2.17;;;;;;;27.39;26.90;99994.34;5073743;28;20643;-68
2023/07/23 09:06:44;;;;;;;2.20;2.00;;;;;;;27.61;26.74;99992.56;5074083;28;20565;-70
2023/07/23 09:09:16;;;;;;;4.18;2.05;;;;;;;27.75;26.54;99984.31;5071727;28;20723;-70
2023/07/23 09:11:44;;;;;;;3.05;1.90;;;;;;;27.65;26.71;99981.59;5065688;28;20690;-70
2023/07/23 09:14:15;;;;;;;2.85;2.42;;;;;;;27.68;27.11;99985.78;5073579;28;20198;-71
2023/07/23 09:16:45;;;;;;;2.40;1.98;;;;;;;27.88;26.74;99987.63;5056177;28;20691;-71
2023/07/23 09:19:22;;;;;;;4.70;2.17;;;;;;;28.07;26.64;99978.13;5073607;28;20197;-69
2023/07/23 09:21:50;;;;;;;2.75;2.17;;;;;;;28.06;25.82;99979.94;5072449;28;20224;-70
2023/07/23 09:24:18;;;;;;;7.13;2.58;;;;;;;27.67;26.65;99974.34;5073099;28;20221;-70
2023/07/23 09:26:47;;;;;;;2.65;2.42;;;;;;;27.37;27.31;99977.75;5063850;28;20280;-69
2023/07/23 09:29:17;;;;;;;4.63;2.22;;;;;;;27.34;27.97;99961.28;5073125;28;20253;-69
2023/07/23 09:31:49;;;;;;;3.05;2.58;;;;;;;27.52;27.56;99966.88;5073095;28;20591;-70
2023/07/23 09:34:21;;;;;;;2.67;2.28;;;;;;;27.42;28.08;99961.50;5073368;28;20663;-70
2023/07/23 09:36:53;;;;;;;2.70;2.50;;;;;;;27.29;27.92;99953.75;5073186;28;20612;-70
2023/07/23 09:39:26;;;;;;;4.65;2.90;;;;;;;27.37;27.95;99961.88;5063085;28;20205;-71
2023/07/23 09:42:02;;;;;;;4.40;2.42;;;;;;;27.62;27.82;99949.25;5071184;28;20605;-68
2023/07/23 09:44:30;;;;;;;3.42;2.55;;;;;;;27.43;27.67;99958.75;5072827;28;20304;-69
2023/07/23 09:46:59;;;;;;;2.92;2.10;;;;;;;27.45;27.79;99943.56;5072692;28;20275;-70
2023/07/23 09:49:31;;;;;;;3.42;2.30;;;;;;;27.86;27.31;99947.19;5072799;28;20263;-69
2023/07/23 09:52:03;;;;;;;2.55;2.35;;;;;;;28.37;26.62;99935.72;5072621;28;20205;-68
2023/07/23 09:54:31;;;;;;;4.00;2.38;;;;;;;28.37;26.05;99938.38;5073011;28;20622;-69
2023/07/23 09:56:59;;;;;;;3.35;2.58;;;;;;;28.30;26.34;99939.03;5072689;28;20205;-69
2023/07/23 09:59:31;;;;;;;4.45;2.88;;;;;;;28.41;26.54;99938.94;5072687;28;20292;-70
2023/07/23 10:02:01;;;;;;;3.03;1.95;;;;;;;28.93;26.23;99933.47;5072550;28;20660;-69
2023/07/23 10:04:34;;;;;;;2.85;2.25;;;;;;;29.55;25.27;99932.22;5072889;28;20222;-69
2023/07/23 10:07:03;;;;;;;2.40;2.20;;;;;;;29.98;24.39;99936.22;5073075;28;20640;-70
2023/07/23 10:09:33;;;;;;;2.67;2.47;;;;;;;30.06;24.13;99917.72;5071469;28;20197;-70
2023/07/23 10:12:01;;;;;;;2.58;2.38;;;;;;;30.18;23.61;99916.56;5070892;28;20292;-70
2023/07/23 10:14:29;;;;;;;2.90;2.28;;;;;;;30.03;23.78;99904.72;5058645;28;20597;-68
2023/07/23 10:16:59;;;;;;;3.65;2.40;;;;;;;29.68;24.01;99906.25;5072492;28;20569;-70
2023/07/23 10:19:28;;;;;;;3.88;2.65;;;;;;;29.63;24.47;99903.16;5072224;28;20213;-70
2023/07/23 10:21:57;;;;;;;3.63;2.33;;;;;;;29.93;23.51;99906.56;5071949;28;20479;-68
2023/07/23 10:24:38;;;;;;;2.17;1.95;;;;;;;30.21;23.25;99892.34;5072317;28;20784;-70
2023/07/23 10:27:11;;;;;;;7.85;6.65;;;;;;;30.06;23.64;99901.78;5062789;28;20226;-70
2023/07/23 10:29:39;;;;;;;2.42;2.20;;;;;;;30.02;23.89;99897.72;5071891;28;20212;-71
2023/07/23 10:32:24;;;;;;;3.63;2.97;;;;;;;30.51;22.98;99898.34;5072050;28;20229;-71
2023/07/23 10:34:52;;;;;;;3.00;2.30;;;;;;;30.21;23.42;99891.53;5071568;28;20197;-70
2023/07/23 10:37:22;;;;;;;2.65;2.20;;;;;;;29.53;24.24;99871.31;5071902;28;20205;-69
2023/07/23 10:39:53;;;;;;;4.85;2.15;;;;;;;28.88;25.39;99881.69;5058367;28;20206;-70
2023/07/23 10:42:41;;;;;;;3.03;2.00;;;;;;;28.42;26.46;99867.25;5071262;28;20193;-70
2023/07/23 10:45:23;;;;;;;3.28;2.33;;;;;;;28.21;26.82;99863.84;5071719;28;20209;-69
2023/07/23 10:47:53;;;;;;;3.70;2.53;;;;;;;28.10;26.98;99871.91;5071666;28;20200;-70
2023/07/23 10:50:22;;;;;;;3.60;2.30;;;;;;;27.88;27.51;99860.50;5071901;28;20656;-68
2023/07/23 10:52:56;;;;;;;3.67;2.30;;;;;;;27.73;27.78;99851.22;5071766;28;20197;-68
2023/07/23 10:55:36;;;;;;;3.42;2.60;;;;;;;27.41;27.99;99857.44;5071535;28;20203;-72
2023/07/23 10:58:11;;;;;;;7.45;2.50;;;;;;;27.02;28.34;99855.47;5071500;28;20205;-69
2023/07/23 11:00:44;;;;;;;2.92;2.10;;;;;;;27.04;28.78;99861.50;5071218;28;20201;-70
2023/07/23 11:03:16;;;;;;;4.30;2.17;;;;;;;27.02;28.57;99852.81;5060168;28;20251;-70
2023/07/23 11:05:45;;;;;;;2.65;2.42;;;;;;;26.89;28.92;99853.84;5069771;28;20232;-70
2023/07/23 11:08:17;;;;;;;4.75;2.50;;;;;;;26.69;29.04;99844.91;5071244;28;20300;-70
2023/07/23 11:10:55;;;;;;;6.28;3.05;;;;;;;26.34;29.29;99870.69;5069987;28;20201;-69
2023/07/23 11:13:29;;;;;;;5.05;2.72;;;;;;;26.04;29.73;99858.13;5071497;28;20274;-70
2023/07/23 11:15:57;;;;;;;3.13;2.50;;;;;;;25.70;30.23;99860.72;5071485;28;20247;-69
2023/07/23 11:18:25;;;;;;;5.22;2.35;;;;;;;25.45;30.62;99865.25;5071717;28;20270;-74
2023/07/23 11:20:56;;;;;;;3.40;2.42;;;;;;;25.28;31.13;99852.50;5070923;28;20218;-70
2023/07/23 11:23:26;;;;;;;2.58;2.38;;;;;;;25.22;31.14;99855.59;5053728;28;20205;-70
2023/07/23 11:25:57;;;;;;;5.00;2.63;;;;;;;25.15;31.71;99849.97;5063886;28;20210;-69
2023/07/23 11:28:25;;;;;;;5.95;2.50;;;;;;;25.11;31.85;99858.19;5069838;28;20229;-71
2023/07/23 11:30:56;;;;;;;2.70;2.42;;;;;;;24.99;31.51;99860.75;5071219;28;20201;-68
2023/07/23 11:33:29;;;;;;;3.25;2.50;;;;;;;24.88;31.94;99851.97;5071581;28;20621;-71
2023/07/23 11:35:57;;;;;;;4.40;2.15;;;;;;;24.77;32.32;99850.13;5071168;28;20662;-70
2023/07/23 11:38:32;;;;;;;2.83;2.40;;;;;;;24.78;32.64;99862.34;5068672;28;20283;-70
2023/07/23 11:41:00;;;;;;;3.15;2.88;;;;;;;24.72;32.76;99860.19;5068717;28;20574;-71